Terminal Aerodrome Forecast
Issued by NWS

Home | Current Version | Previous Version | Graphics & Text | Print | Product List | Glossary On
Versions: 1 2 3 4 5 6 7 8 9 10 11 12 13 14 15 16 17 18 19
000
FTUS43 KGRB 300300 AAA
TAFAUW
TAF AMD
KAUW 300324Z 3003/3024 33011G17KT P6SM -SN SCT020 BKN040
     FM300900 33009KT P6SM SCT020
     FM301400 32005KT P6SM BKN150
     FM302200 24005KT P6SM SCT200=

USA.gov is the U.S. government's official web portal to all federal, state and local government web resources and services.